sensor_id;sensor_type;location;lat;lon;timestamp;P1;durP1;ratioP1;P2;durP2;ratioP2
11598;SDS011;5855;48.840;9.188;2024-02-28T00:00:24;16.42;;;13.07;;
11598;SDS011;5855;48.840;9.188;2024-02-28T00:06:15;16.63;;;13.20;;
11598;SDS011;5855;48.840;9.188;2024-02-28T00:08:42;14.65;;;13.10;;
11598;SDS011;5855;48.840;9.188;2024-02-28T00:20:10;16.27;;;13.00;;
11598;SDS011;5855;48.840;9.188;2024-02-28T00:22:38;15.25;;;13.48;;
11598;SDS011;5855;48.840;9.188;2024-02-28T00:25:05;15.88;;;13.75;;
11598;SDS011;5855;48.840;9.188;2024-02-28T00:27:33;17.27;;;14.48;;
11598;SDS011;5855;48.840;9.188;2024-02-28T00:30:02;17.23;;;14.32;;
11598;SDS011;5855;48.840;9.188;2024-02-28T00:32:31;17.00;;;13.55;;
11598;SDS011;5855;48.840;9.188;2024-02-28T00:34:58;16.35;;;14.60;;
11598;SDS011;5855;48.840;9.188;2024-02-28T00:37:27;17.58;;;14.70;;
11598;SDS011;5855;48.840;9.188;2024-02-28T00:39:56;17.52;;;15.32;;
11598;SDS011;5855;48.840;9.188;2024-02-28T00:42:23;17.55;;;15.43;;
11598;SDS011;5855;48.840;9.188;2024-02-28T00:44:50;18.25;;;14.18;;
11598;SDS011;5855;48.840;9.188;2024-02-28T00:47:18;17.08;;;14.32;;
11598;SDS011;5855;48.840;9.188;2024-02-28T00:49:45;19.35;;;15.23;;
11598;SDS011;5855;48.840;9.188;2024-02-28T00:52:12;18.08;;;15.25;;
11598;SDS011;5855;48.840;9.188;2024-02-28T00:54:39;18.40;;;15.38;;
11598;SDS011;5855;48.840;9.188;2024-02-28T00:57:05;17.15;;;14.70;;
11598;SDS011;5855;48.840;9.188;2024-02-28T00:59:32;19.23;;;14.93;;
11598;SDS011;5855;48.840;9.188;2024-02-28T01:01:59;18.23;;;15.10;;
11598;SDS011;5855;48.840;9.188;2024-02-28T01:04:42;17.92;;;14.93;;
11598;SDS011;5855;48.840;9.188;2024-02-28T01:07:09;17.17;;;14.75;;
11598;SDS011;5855;48.840;9.188;2024-02-28T01:09:36;19.08;;;15.20;;
11598;SDS011;5855;48.840;9.188;2024-02-28T01:12:03;18.70;;;15.95;;
11598;SDS011;5855;48.840;9.188;2024-02-28T01:14:29;17.55;;;15.60;;
11598;SDS011;5855;48.840;9.188;2024-02-28T01:16:58;18.40;;;15.85;;
11598;SDS011;5855;48.840;9.188;2024-02-28T01:19:25;20.98;;;16.65;;
11598;SDS011;5855;48.840;9.188;2024-02-28T01:21:54;19.30;;;16.30;;
11598;SDS011;5855;48.840;9.188;2024-02-28T01:24:20;19.15;;;16.52;;
11598;SDS011;5855;48.840;9.188;2024-02-28T01:26:47;19.63;;;16.48;;
11598;SDS011;5855;48.840;9.188;2024-02-28T01:29:14;19.05;;;15.90;;
11598;SDS011;5855;48.840;9.188;2024-02-28T01:31:41;20.30;;;16.08;;
11598;SDS011;5855;48.840;9.188;2024-02-28T01:34:08;19.42;;;15.88;;
11598;SDS011;5855;48.840;9.188;2024-02-28T01:36:38;19.55;;;15.82;;
11598;SDS011;5855;48.840;9.188;2024-02-28T01:39:06;18.63;;;16.10;;
11598;SDS011;5855;48.840;9.188;2024-02-28T01:41:33;21.13;;;16.60;;
11598;SDS011;5855;48.840;9.188;2024-02-28T01:44:00;20.48;;;16.33;;
11598;SDS011;5855;48.840;9.188;2024-02-28T01:46:27;19.65;;;16.00;;
11598;SDS011;5855;48.840;9.188;2024-02-28T01:48:58;18.42;;;15.10;;
11598;SDS011;5855;48.840;9.188;2024-02-28T01:51:25;19.63;;;15.38;;
11598;SDS011;5855;48.840;9.188;2024-02-28T01:53:53;18.85;;;15.80;;
11598;SDS011;5855;48.840;9.188;2024-02-28T01:56:23;19.80;;;15.82;;
11598;SDS011;5855;48.840;9.188;2024-02-28T01:58:50;19.77;;;16.55;;
11598;SDS011;5855;48.840;9.188;2024-02-28T02:01:17;21.00;;;16.92;;
11598;SDS011;5855;48.840;9.188;2024-02-28T02:03:44;20.33;;;16.02;;
11598;SDS011;5855;48.840;9.188;2024-02-28T02:06:12;21.08;;;16.25;;
11598;SDS011;5855;48.840;9.188;2024-02-28T02:08:39;20.40;;;16.48;;
11598;SDS011;5855;48.840;9.188;2024-02-28T02:11:06;18.92;;;15.82;;
11598;SDS011;5855;48.840;9.188;2024-02-28T02:13:35;21.00;;;15.90;;
11598;SDS011;5855;48.840;9.188;2024-02-28T02:16:13;18.77;;;15.10;;
11598;SDS011;5855;48.840;9.188;2024-02-28T02:18:40;18.40;;;14.57;;
11598;SDS011;5855;48.840;9.188;2024-02-28T02:21:07;18.52;;;15.30;;
11598;SDS011;5855;48.840;9.188;2024-02-28T02:23:36;17.48;;;14.10;;
11598;SDS011;5855;48.840;9.188;2024-02-28T02:26:06;18.50;;;14.88;;
11598;SDS011;5855;48.840;9.188;2024-02-28T02:28:33;18.58;;;15.48;;
11598;SDS011;5855;48.840;9.188;2024-02-28T02:31:00;17.60;;;14.55;;
11598;SDS011;5855;48.840;9.188;2024-02-28T02:33:27;17.63;;;14.70;;
11598;SDS011;5855;48.840;9.188;2024-02-28T02:35:54;21.08;;;15.52;;
11598;SDS011;5855;48.840;9.188;2024-02-28T02:38:24;19.15;;;14.65;;
11598;SDS011;5855;48.840;9.188;2024-02-28T02:40:52;17.65;;;14.68;;
11598;SDS011;5855;48.840;9.188;2024-02-28T02:43:19;19.52;;;15.75;;
11598;SDS011;5855;48.840;9.188;2024-02-28T02:45:46;18.52;;;14.43;;
11598;SDS011;5855;48.840;9.188;2024-02-28T02:48:15;19.98;;;15.40;;
11598;SDS011;5855;48.840;9.188;2024-02-28T02:50:42;19.70;;;15.50;;
11598;SDS011;5855;48.840;9.188;2024-02-28T02:53:10;19.70;;;15.30;;
11598;SDS011;5855;48.840;9.188;2024-02-28T02:55:37;21.10;;;15.13;;
11598;SDS011;5855;48.840;9.188;2024-02-28T02:58:05;19.42;;;15.68;;
11598;SDS011;5855;48.840;9.188;2024-02-28T03:00:32;19.02;;;16.70;;
11598;SDS011;5855;48.840;9.188;2024-02-28T03:02:59;19.10;;;15.88;;
11598;SDS011;5855;48.840;9.188;2024-02-28T03:05:26;18.48;;;15.55;;
11598;SDS011;5855;48.840;9.188;2024-02-28T03:07:52;18.30;;;16.27;;
11598;SDS011;5855;48.840;9.188;2024-02-28T03:10:19;20.63;;;17.15;;
11598;SDS011;5855;48.840;9.188;2024-02-28T03:12:46;18.42;;;15.90;;
11598;SDS011;5855;48.840;9.188;2024-02-28T03:15:14;20.33;;;16.30;;
11598;SDS011;5855;48.840;9.188;2024-02-28T03:17:41;22.02;;;16.38;;
11598;SDS011;5855;48.840;9.188;2024-02-28T03:20:09;20.80;;;16.20;;
11598;SDS011;5855;48.840;9.188;2024-02-28T03:22:38;20.35;;;16.08;;
11598;SDS011;5855;48.840;9.188;2024-02-28T03:25:05;20.25;;;16.30;;
11598;SDS011;5855;48.840;9.188;2024-02-28T03:27:35;21.20;;;16.48;;
11598;SDS011;5855;48.840;9.188;2024-02-28T03:30:02;19.70;;;15.63;;
11598;SDS011;5855;48.840;9.188;2024-02-28T03:32:31;17.55;;;15.30;;
11598;SDS011;5855;48.840;9.188;2024-02-28T03:34:58;21.02;;;16.48;;
11598;SDS011;5855;48.840;9.188;2024-02-28T03:37:25;19.02;;;15.40;;
11598;SDS011;5855;48.840;9.188;2024-02-28T03:39:52;19.85;;;15.80;;
11598;SDS011;5855;48.840;9.188;2024-02-28T03:42:21;18.52;;;15.32;;
11598;SDS011;5855;48.840;9.188;2024-02-28T03:44:48;19.58;;;15.00;;
11598;SDS011;5855;48.840;9.188;2024-02-28T03:47:15;19.35;;;15.60;;
11598;SDS011;5855;48.840;9.188;2024-02-28T03:49:45;19.80;;;15.68;;
11598;SDS011;5855;48.840;9.188;2024-02-28T03:52:12;19.85;;;16.35;;
11598;SDS011;5855;48.840;9.188;2024-02-28T03:54:41;19.83;;;16.10;;
11598;SDS011;5855;48.840;9.188;2024-02-28T03:57:08;20.30;;;16.05;;
11598;SDS011;5855;48.840;9.188;2024-02-28T03:59:35;18.55;;;15.13;;
11598;SDS011;5855;48.840;9.188;2024-02-28T04:02:02;19.88;;;16.35;;
11598;SDS011;5855;48.840;9.188;2024-02-28T04:04:29;19.02;;;15.77;;
11598;SDS011;5855;48.840;9.188;2024-02-28T04:06:57;20.00;;;15.70;;
11598;SDS011;5855;48.840;9.188;2024-02-28T04:09:24;19.75;;;15.60;;
11598;SDS011;5855;48.840;9.188;2024-02-28T04:11:51;18.55;;;15.88;;
11598;SDS011;5855;48.840;9.188;2024-02-28T04:14:18;19.33;;;16.15;;
11598;SDS011;5855;48.840;9.188;2024-02-28T04:16:45;20.55;;;16.13;;
11598;SDS011;5855;48.840;9.188;2024-02-28T04:19:12;19.58;;;14.93;;
11598;SDS011;5855;48.840;9.188;2024-02-28T04:21:39;19.55;;;16.50;;
11598;SDS011;5855;48.840;9.188;2024-02-28T04:24:07;21.50;;;16.55;;
11598;SDS011;5855;48.840;9.188;2024-02-28T04:26:37;19.38;;;15.93;;
11598;SDS011;5855;48.840;9.188;2024-02-28T04:29:06;20.38;;;15.88;;
11598;SDS011;5855;48.840;9.188;2024-02-28T04:31:38;18.38;;;15.32;;
11598;SDS011;5855;48.840;9.188;2024-02-28T04:34:06;21.38;;;15.55;;
11598;SDS011;5855;48.840;9.188;2024-02-28T04:36:33;20.20;;;15.48;;
11598;SDS011;5855;48.840;9.188;2024-02-28T04:39:00;18.00;;;15.30;;
11598;SDS011;5855;48.840;9.188;2024-02-28T04:41:30;19.08;;;15.65;;
11598;SDS011;5855;48.840;9.188;2024-02-28T04:43:57;18.55;;;15.30;;
11598;SDS011;5855;48.840;9.188;2024-02-28T04:46:24;21.33;;;16.73;;
11598;SDS011;5855;48.840;9.188;2024-02-28T04:48:51;19.05;;;15.98;;
11598;SDS011;5855;48.840;9.188;2024-02-28T04:51:17;18.10;;;15.40;;
11598;SDS011;5855;48.840;9.188;2024-02-28T04:53:45;20.23;;;16.85;;
11598;SDS011;5855;48.840;9.188;2024-02-28T04:56:11;22.15;;;16.67;;
11598;SDS011;5855;48.840;9.188;2024-02-28T04:58:40;19.77;;;16.75;;
11598;SDS011;5855;48.840;9.188;2024-02-28T05:01:07;21.70;;;17.02;;
11598;SDS011;5855;48.840;9.188;2024-02-28T05:03:33;22.60;;;18.05;;
11598;SDS011;5855;48.840;9.188;2024-02-28T05:06:00;21.60;;;16.88;;
11598;SDS011;5855;48.840;9.188;2024-02-28T05:08:29;21.00;;;17.13;;
11598;SDS011;5855;48.840;9.188;2024-02-28T05:10:59;22.40;;;17.50;;
11598;SDS011;5855;48.840;9.188;2024-02-28T05:13:26;21.15;;;16.92;;
11598;SDS011;5855;48.840;9.188;2024-02-28T05:15:57;22.38;;;16.40;;
11598;SDS011;5855;48.840;9.188;2024-02-28T05:18:23;21.17;;;16.60;;
11598;SDS011;5855;48.840;9.188;2024-02-28T05:20:50;21.83;;;16.88;;
11598;SDS011;5855;48.840;9.188;2024-02-28T05:23:17;20.85;;;16.45;;
11598;SDS011;5855;48.840;9.188;2024-02-28T05:25:44;20.63;;;16.15;;
11598;SDS011;5855;48.840;9.188;2024-02-28T05:28:13;20.13;;;16.90;;
11598;SDS011;5855;48.840;9.188;2024-02-28T05:30:40;20.55;;;17.15;;
11598;SDS011;5855;48.840;9.188;2024-02-28T05:33:08;18.85;;;16.70;;
11598;SDS011;5855;48.840;9.188;2024-02-28T05:35:36;20.30;;;15.90;;
11598;SDS011;5855;48.840;9.188;2024-02-28T05:38:03;21.50;;;16.40;;
11598;SDS011;5855;48.840;9.188;2024-02-28T05:40:30;19.55;;;16.23;;
11598;SDS011;5855;48.840;9.188;2024-02-28T05:42:57;20.23;;;15.73;;
11598;SDS011;5855;48.840;9.188;2024-02-28T05:45:29;18.75;;;15.63;;
11598;SDS011;5855;48.840;9.188;2024-02-28T05:47:56;20.40;;;15.60;;
11598;SDS011;5855;48.840;9.188;2024-02-28T05:50:24;21.42;;;15.95;;
11598;SDS011;5855;48.840;9.188;2024-02-28T05:52:57;19.27;;;15.70;;
11598;SDS011;5855;48.840;9.188;2024-02-28T05:55:24;19.75;;;15.93;;
11598;SDS011;5855;48.840;9.188;2024-02-28T05:57:53;19.75;;;15.90;;
11598;SDS011;5855;48.840;9.188;2024-02-28T06:00:20;18.73;;;16.20;;
11598;SDS011;5855;48.840;9.188;2024-02-28T06:02:46;18.65;;;15.60;;
11598;SDS011;5855;48.840;9.188;2024-02-28T06:05:13;20.33;;;16.13;;
11598;SDS011;5855;48.840;9.188;2024-02-28T06:07:45;19.90;;;16.35;;
11598;SDS011;5855;48.840;9.188;2024-02-28T06:10:12;18.85;;;16.67;;
11598;SDS011;5855;48.840;9.188;2024-02-28T06:18:33;19.73;;;16.83;;
11598;SDS011;5855;48.840;9.188;2024-02-28T06:21:01;20.60;;;16.88;;
11598;SDS011;5855;48.840;9.188;2024-02-28T06:26:40;21.40;;;16.45;;
11598;SDS011;5855;48.840;9.188;2024-02-28T06:29:10;21.13;;;16.90;;
11598;SDS011;5855;48.840;9.188;2024-02-28T06:31:37;19.85;;;17.17;;
11598;SDS011;5855;48.840;9.188;2024-02-28T06:34:05;19.95;;;16.55;;
11598;SDS011;5855;48.840;9.188;2024-02-28T06:36:32;20.70;;;17.02;;
11598;SDS011;5855;48.840;9.188;2024-02-28T06:39:00;22.02;;;17.33;;
11598;SDS011;5855;48.840;9.188;2024-02-28T06:41:28;22.27;;;17.95;;
11598;SDS011;5855;48.840;9.188;2024-02-28T06:43:55;19.77;;;17.70;;
11598;SDS011;5855;48.840;9.188;2024-02-28T06:46:32;21.02;;;17.85;;
11598;SDS011;5855;48.840;9.188;2024-02-28T06:48:58;23.33;;;18.30;;
11598;SDS011;5855;48.840;9.188;2024-02-28T06:51:25;20.58;;;17.63;;
11598;SDS011;5855;48.840;9.188;2024-02-28T06:53:52;22.02;;;17.98;;
11598;SDS011;5855;48.840;9.188;2024-02-28T06:56:22;21.58;;;17.38;;
11598;SDS011;5855;48.840;9.188;2024-02-28T06:58:49;20.30;;;16.90;;
11598;SDS011;5855;48.840;9.188;2024-02-28T07:01:15;20.48;;;17.17;;
11598;SDS011;5855;48.840;9.188;2024-02-28T07:03:45;19.67;;;17.20;;
11598;SDS011;5855;48.840;9.188;2024-02-28T07:06:12;22.92;;;17.13;;
11598;SDS011;5855;48.840;9.188;2024-02-28T07:08:41;23.92;;;18.40;;
11598;SDS011;5855;48.840;9.188;2024-02-28T07:11:12;21.10;;;16.63;;
11598;SDS011;5855;48.840;9.188;2024-02-28T07:13:41;20.13;;;17.05;;
11598;SDS011;5855;48.840;9.188;2024-02-28T07:16:08;20.92;;;16.83;;
11598;SDS011;5855;48.840;9.188;2024-02-28T07:18:35;22.00;;;17.30;;
11598;SDS011;5855;48.840;9.188;2024-02-28T07:21:02;20.80;;;17.08;;
11598;SDS011;5855;48.840;9.188;2024-02-28T07:23:31;23.23;;;17.55;;
11598;SDS011;5855;48.840;9.188;2024-02-28T07:25:58;19.70;;;16.83;;
11598;SDS011;5855;48.840;9.188;2024-02-28T07:28:25;20.65;;;16.95;;
11598;SDS011;5855;48.840;9.188;2024-02-28T07:30:54;20.25;;;16.38;;
11598;SDS011;5855;48.840;9.188;2024-02-28T07:33:21;21.02;;;16.75;;
11598;SDS011;5855;48.840;9.188;2024-02-28T07:35:48;20.05;;;16.73;;
11598;SDS011;5855;48.840;9.188;2024-02-28T07:38:16;19.75;;;16.55;;
11598;SDS011;5855;48.840;9.188;2024-02-28T07:40:45;19.83;;;16.98;;
11598;SDS011;5855;48.840;9.188;2024-02-28T07:43:12;21.73;;;16.35;;
11598;SDS011;5855;48.840;9.188;2024-02-28T07:45:39;21.48;;;17.42;;
11598;SDS011;5855;48.840;9.188;2024-02-28T07:48:07;20.70;;;16.65;;
11598;SDS011;5855;48.840;9.188;2024-02-28T07:50:34;18.60;;;15.90;;
11598;SDS011;5855;48.840;9.188;2024-02-28T07:53:03;20.40;;;16.65;;
11598;SDS011;5855;48.840;9.188;2024-02-28T07:55:30;19.50;;;16.30;;
11598;SDS011;5855;48.840;9.188;2024-02-28T07:58:00;19.98;;;16.17;;
11598;SDS011;5855;48.840;9.188;2024-02-28T08:00:26;18.95;;;16.80;;
11598;SDS011;5855;48.840;9.188;2024-02-28T08:02:53;20.63;;;16.50;;
11598;SDS011;5855;48.840;9.188;2024-02-28T08:05:22;24.35;;;16.98;;
11598;SDS011;5855;48.840;9.188;2024-02-28T08:07:49;20.90;;;16.85;;
11598;SDS011;5855;48.840;9.188;2024-02-28T08:10:16;21.15;;;17.17;;
11598;SDS011;5855;48.840;9.188;2024-02-28T08:12:43;23.88;;;17.33;;
11598;SDS011;5855;48.840;9.188;2024-02-28T08:15:10;23.00;;;16.75;;
11598;SDS011;5855;48.840;9.188;2024-02-28T08:17:37;21.08;;;17.88;;
11598;SDS011;5855;48.840;9.188;2024-02-28T08:20:04;22.55;;;18.02;;
11598;SDS011;5855;48.840;9.188;2024-02-28T08:22:34;23.60;;;18.58;;
11598;SDS011;5855;48.840;9.188;2024-02-28T08:25:02;20.02;;;17.23;;
11598;SDS011;5855;48.840;9.188;2024-02-28T08:27:31;22.48;;;17.63;;
11598;SDS011;5855;48.840;9.188;2024-02-28T08:29:59;22.83;;;18.05;;
11598;SDS011;5855;48.840;9.188;2024-02-28T08:32:26;21.25;;;17.88;;
11598;SDS011;5855;48.840;9.188;2024-02-28T08:34:53;21.55;;;17.67;;
11598;SDS011;5855;48.840;9.188;2024-02-28T08:37:21;21.50;;;17.50;;
11598;SDS011;5855;48.840;9.188;2024-02-28T08:39:49;21.60;;;18.17;;
11598;SDS011;5855;48.840;9.188;2024-02-28T08:42:16;23.38;;;18.60;;
11598;SDS011;5855;48.840;9.188;2024-02-28T08:44:43;22.63;;;18.45;;
11598;SDS011;5855;48.840;9.188;2024-02-28T08:47:13;23.77;;;18.50;;
11598;SDS011;5855;48.840;9.188;2024-02-28T08:49:40;22.52;;;17.27;;
11598;SDS011;5855;48.840;9.188;2024-02-28T08:52:07;23.33;;;18.30;;
11598;SDS011;5855;48.840;9.188;2024-02-28T08:54:35;23.00;;;17.80;;
11598;SDS011;5855;48.840;9.188;2024-02-28T08:57:03;22.52;;;18.27;;
11598;SDS011;5855;48.840;9.188;2024-02-28T08:59:30;22.25;;;17.00;;
11598;SDS011;5855;48.840;9.188;2024-02-28T09:01:57;22.73;;;17.65;;
11598;SDS011;5855;48.840;9.188;2024-02-28T09:04:24;21.80;;;17.10;;
11598;SDS011;5855;48.840;9.188;2024-02-28T09:06:51;22.80;;;17.55;;
11598;SDS011;5855;48.840;9.188;2024-02-28T09:09:19;20.65;;;16.95;;
11598;SDS011;5855;48.840;9.188;2024-02-28T09:11:48;20.02;;;16.90;;
11598;SDS011;5855;48.840;9.188;2024-02-28T09:14:18;20.10;;;17.20;;
11598;SDS011;5855;48.840;9.188;2024-02-28T09:16:48;23.23;;;17.85;;
11598;SDS011;5855;48.840;9.188;2024-02-28T09:19:15;21.65;;;17.15;;
11598;SDS011;5855;48.840;9.188;2024-02-28T09:21:42;22.95;;;16.80;;
11598;SDS011;5855;48.840;9.188;2024-02-28T09:24:09;19.73;;;16.13;;
11598;SDS011;5855;48.840;9.188;2024-02-28T09:26:38;19.10;;;15.55;;
11598;SDS011;5855;48.840;9.188;2024-02-28T09:29:05;17.85;;;15.63;;
11598;SDS011;5855;48.840;9.188;2024-02-28T09:31:35;19.35;;;14.93;;
11598;SDS011;5855;48.840;9.188;2024-02-28T09:34:02;18.85;;;14.43;;
11598;SDS011;5855;48.840;9.188;2024-02-28T09:36:32;15.95;;;14.15;;
11598;SDS011;5855;48.840;9.188;2024-02-28T09:39:00;16.13;;;14.15;;
11598;SDS011;5855;48.840;9.188;2024-02-28T09:41:26;14.40;;;12.88;;
11598;SDS011;5855;48.840;9.188;2024-02-28T09:43:53;15.93;;;13.07;;
11598;SDS011;5855;48.840;9.188;2024-02-28T09:46:21;18.48;;;14.20;;
11598;SDS011;5855;48.840;9.188;2024-02-28T09:48:49;16.60;;;14.50;;
11598;SDS011;5855;48.840;9.188;2024-02-28T09:51:18;15.35;;;13.13;;
11598;SDS011;5855;48.840;9.188;2024-02-28T09:53:48;14.75;;;12.90;;
11598;SDS011;5855;48.840;9.188;2024-02-28T09:56:16;13.88;;;12.38;;
11598;SDS011;5855;48.840;9.188;2024-02-28T09:58:43;14.70;;;13.10;;
11598;SDS011;5855;48.840;9.188;2024-02-28T10:01:11;15.88;;;13.85;;
11598;SDS011;5855;48.840;9.188;2024-02-28T10:03:41;15.48;;;13.07;;
11598;SDS011;5855;48.840;9.188;2024-02-28T10:06:11;15.27;;;13.63;;
11598;SDS011;5855;48.840;9.188;2024-02-28T10:08:39;15.13;;;13.43;;
11598;SDS011;5855;48.840;9.188;2024-02-28T10:11:06;14.27;;;12.20;;
11598;SDS011;5855;48.840;9.188;2024-02-28T10:13:33;14.10;;;11.75;;
11598;SDS011;5855;48.840;9.188;2024-02-28T10:16:02;12.57;;;11.18;;
11598;SDS011;5855;48.840;9.188;2024-02-28T10:18:34;13.13;;;11.18;;
11598;SDS011;5855;48.840;9.188;2024-02-28T10:21:01;13.43;;;11.30;;
11598;SDS011;5855;48.840;9.188;2024-02-28T10:23:31;14.98;;;12.50;;
11598;SDS011;5855;48.840;9.188;2024-02-28T10:25:58;16.42;;;12.30;;
11598;SDS011;5855;48.840;9.188;2024-02-28T10:28:27;17.75;;;14.63;;
11598;SDS011;5855;48.840;9.188;2024-02-28T10:30:54;16.90;;;14.43;;
11598;SDS011;5855;48.840;9.188;2024-02-28T10:33:21;19.52;;;15.43;;
11598;SDS011;5855;48.840;9.188;2024-02-28T10:35:50;17.63;;;14.70;;
11598;SDS011;5855;48.840;9.188;2024-02-28T10:38:18;18.88;;;15.30;;
11598;SDS011;5855;48.840;9.188;2024-02-28T10:40:47;16.65;;;14.27;;
11598;SDS011;5855;48.840;9.188;2024-02-28T10:43:17;17.73;;;14.82;;
11598;SDS011;5855;48.840;9.188;2024-02-28T10:45:45;17.60;;;15.13;;
11598;SDS011;5855;48.840;9.188;2024-02-28T10:48:13;19.08;;;15.05;;
11598;SDS011;5855;48.840;9.188;2024-02-28T10:50:41;19.52;;;15.30;;
11598;SDS011;5855;48.840;9.188;2024-02-28T10:53:12;18.77;;;15.52;;
11598;SDS011;5855;48.840;9.188;2024-02-28T10:55:41;17.90;;;15.25;;
11598;SDS011;5855;48.840;9.188;2024-02-28T10:58:10;19.85;;;15.80;;
11598;SDS011;5855;48.840;9.188;2024-02-28T11:00:38;18.38;;;15.05;;
11598;SDS011;5855;48.840;9.188;2024-02-28T11:03:09;18.15;;;15.30;;
11598;SDS011;5855;48.840;9.188;2024-02-28T11:05:37;17.23;;;15.02;;
11598;SDS011;5855;48.840;9.188;2024-02-28T11:08:05;18.75;;;15.40;;
11598;SDS011;5855;48.840;9.188;2024-02-28T11:10:35;18.67;;;15.02;;
11598;SDS011;5855;48.840;9.188;2024-02-28T11:13:06;18.52;;;16.10;;
11598;SDS011;5855;48.840;9.188;2024-02-28T11:15:37;21.10;;;16.42;;
11598;SDS011;5855;48.840;9.188;2024-02-28T11:18:07;18.05;;;14.85;;
11598;SDS011;5855;48.840;9.188;2024-02-28T11:21:06;18.85;;;15.70;;
11598;SDS011;5855;48.840;9.188;2024-02-28T11:23:45;19.02;;;15.23;;
11598;SDS011;5855;48.840;9.188;2024-02-28T11:26:13;22.65;;;16.08;;
11598;SDS011;5855;48.840;9.188;2024-02-28T11:28:40;21.73;;;16.17;;
11598;SDS011;5855;48.840;9.188;2024-02-28T11:31:13;20.58;;;15.80;;
11598;SDS011;5855;48.840;9.188;2024-02-28T11:33:41;18.27;;;14.93;;
11598;SDS011;5855;48.840;9.188;2024-02-28T11:36:08;19.73;;;15.65;;
11598;SDS011;5855;48.840;9.188;2024-02-28T11:38:38;18.67;;;14.85;;
11598;SDS011;5855;48.840;9.188;2024-02-28T11:41:05;19.52;;;16.67;;
11598;SDS011;5855;48.840;9.188;2024-02-28T11:43:32;20.10;;;15.82;;
11598;SDS011;5855;48.840;9.188;2024-02-28T11:46:00;16.58;;;14.10;;
11598;SDS011;5855;48.840;9.188;2024-02-28T11:48:30;17.98;;;14.15;;
11598;SDS011;5855;48.840;9.188;2024-02-28T11:50:58;16.80;;;14.57;;
11598;SDS011;5855;48.840;9.188;2024-02-28T11:53:24;19.67;;;16.25;;
11598;SDS011;5855;48.840;9.188;2024-02-28T11:55:52;19.88;;;15.63;;
11598;SDS011;5855;48.840;9.188;2024-02-28T11:58:20;19.00;;;15.35;;
11598;SDS011;5855;48.840;9.188;2024-02-28T12:00:48;18.08;;;15.10;;
11598;SDS011;5855;48.840;9.188;2024-02-28T12:03:19;18.52;;;15.30;;
11598;SDS011;5855;48.840;9.188;2024-02-28T12:05:48;18.70;;;15.23;;
11598;SDS011;5855;48.840;9.188;2024-02-28T12:08:16;20.00;;;15.98;;
11598;SDS011;5855;48.840;9.188;2024-02-28T12:10:44;20.65;;;16.83;;
11598;SDS011;5855;48.840;9.188;2024-02-28T12:13:11;20.27;;;15.90;;
11598;SDS011;5855;48.840;9.188;2024-02-28T12:15:43;19.88;;;16.98;;
11598;SDS011;5855;48.840;9.188;2024-02-28T12:18:10;20.88;;;15.57;;
11598;SDS011;5855;48.840;9.188;2024-02-28T12:20:38;19.73;;;15.88;;
11598;SDS011;5855;48.840;9.188;2024-02-28T12:23:06;20.67;;;16.38;;
11598;SDS011;5855;48.840;9.188;2024-02-28T12:25:33;20.48;;;16.05;;
11598;SDS011;5855;48.840;9.188;2024-02-28T12:28:07;23.20;;;16.45;;
11598;SDS011;5855;48.840;9.188;2024-02-28T12:30:39;21.38;;;15.60;;
11598;SDS011;5855;48.840;9.188;2024-02-28T12:33:07;18.10;;;15.43;;
11598;SDS011;5855;48.840;9.188;2024-02-28T12:35:36;19.75;;;15.57;;
11598;SDS011;5855;48.840;9.188;2024-02-28T12:38:03;19.25;;;15.60;;
11598;SDS011;5855;48.840;9.188;2024-02-28T12:40:32;19.98;;;15.25;;
11598;SDS011;5855;48.840;9.188;2024-02-28T12:42:59;19.05;;;15.05;;
11598;SDS011;5855;48.840;9.188;2024-02-28T12:45:25;19.20;;;15.65;;
11598;SDS011;5855;48.840;9.188;2024-02-28T12:47:53;19.13;;;15.98;;
11598;SDS011;5855;48.840;9.188;2024-02-28T12:50:21;20.98;;;15.55;;
11598;SDS011;5855;48.840;9.188;2024-02-28T12:52:49;20.60;;;15.52;;
11598;SDS011;5855;48.840;9.188;2024-02-28T12:55:18;19.30;;;15.90;;
11598;SDS011;5855;48.840;9.188;2024-02-28T12:57:47;18.30;;;14.98;;
11598;SDS011;5855;48.840;9.188;2024-02-28T13:00:15;18.90;;;15.88;;
11598;SDS011;5855;48.840;9.188;2024-02-28T13:02:43;20.73;;;15.73;;
11598;SDS011;5855;48.840;9.188;2024-02-28T13:05:11;19.33;;;15.35;;
11598;SDS011;5855;48.840;9.188;2024-02-28T13:07:39;18.25;;;15.18;;
11598;SDS011;5855;48.840;9.188;2024-02-28T13:10:09;19.98;;;15.77;;
11598;SDS011;5855;48.840;9.188;2024-02-28T13:12:57;19.88;;;16.52;;
11598;SDS011;5855;48.840;9.188;2024-02-28T13:15:24;20.08;;;16.48;;
11598;SDS011;5855;48.840;9.188;2024-02-28T13:17:51;23.08;;;17.63;;
11598;SDS011;5855;48.840;9.188;2024-02-28T13:20:18;21.83;;;16.80;;
11598;SDS011;5855;48.840;9.188;2024-02-28T13:22:46;19.48;;;16.60;;
11598;SDS011;5855;48.840;9.188;2024-02-28T13:25:16;21.48;;;16.08;;
11598;SDS011;5855;48.840;9.188;2024-02-28T13:27:44;19.70;;;15.70;;
11598;SDS011;5855;48.840;9.188;2024-02-28T13:30:16;18.55;;;14.68;;
11598;SDS011;5855;48.840;9.188;2024-02-28T13:32:43;18.70;;;14.60;;
11598;SDS011;5855;48.840;9.188;2024-02-28T13:35:29;18.70;;;14.90;;
11598;SDS011;5855;48.840;9.188;2024-02-28T13:37:59;18.10;;;14.57;;
11598;SDS011;5855;48.840;9.188;2024-02-28T13:40:30;17.75;;;14.48;;
11598;SDS011;5855;48.840;9.188;2024-02-28T13:42:57;19.30;;;15.50;;
11598;SDS011;5855;48.840;9.188;2024-02-28T13:45:29;16.70;;;14.10;;
11598;SDS011;5855;48.840;9.188;2024-02-28T13:48:14;18.73;;;14.13;;
11598;SDS011;5855;48.840;9.188;2024-02-28T13:50:43;19.33;;;15.40;;
11598;SDS011;5855;48.840;9.188;2024-02-28T13:53:10;18.60;;;14.48;;
11598;SDS011;5855;48.840;9.188;2024-02-28T13:55:41;18.88;;;14.85;;
11598;SDS011;5855;48.840;9.188;2024-02-28T13:58:10;17.35;;;14.60;;
11598;SDS011;5855;48.840;9.188;2024-02-28T14:00:38;19.45;;;14.90;;
11598;SDS011;5855;48.840;9.188;2024-02-28T14:03:12;17.88;;;14.73;;
11598;SDS011;5855;48.840;9.188;2024-02-28T14:05:50;18.13;;;14.27;;
11598;SDS011;5855;48.840;9.188;2024-02-28T14:08:17;17.50;;;14.00;;
11598;SDS011;5855;48.840;9.188;2024-02-28T14:10:56;18.38;;;14.75;;
11598;SDS011;5855;48.840;9.188;2024-02-28T14:13:26;18.52;;;14.70;;
11598;SDS011;5855;48.840;9.188;2024-02-28T14:15:57;19.02;;;14.23;;
11598;SDS011;5855;48.840;9.188;2024-02-28T14:18:31;17.80;;;14.35;;
11598;SDS011;5855;48.840;9.188;2024-02-28T14:20:58;19.42;;;15.30;;
11598;SDS011;5855;48.840;9.188;2024-02-28T14:23:30;18.20;;;15.15;;
11598;SDS011;5855;48.840;9.188;2024-02-28T14:25:58;20.23;;;14.85;;
11598;SDS011;5855;48.840;9.188;2024-02-28T14:28:30;17.75;;;14.13;;
11598;SDS011;5855;48.840;9.188;2024-02-28T14:30:59;16.00;;;12.30;;
11598;SDS011;5855;48.840;9.188;2024-02-28T14:33:26;14.55;;;11.80;;
11598;SDS011;5855;48.840;9.188;2024-02-28T14:36:03;14.32;;;12.40;;
11598;SDS011;5855;48.840;9.188;2024-02-28T14:38:33;13.05;;;11.25;;
11598;SDS011;5855;48.840;9.188;2024-02-28T14:41:07;14.60;;;11.90;;
11598;SDS011;5855;48.840;9.188;2024-02-28T14:43:35;17.42;;;12.45;;
11598;SDS011;5855;48.840;9.188;2024-02-28T14:46:04;15.65;;;12.20;;
11598;SDS011;5855;48.840;9.188;2024-02-28T14:48:35;14.90;;;12.35;;
11598;SDS011;5855;48.840;9.188;2024-02-28T14:51:02;17.88;;;12.80;;
11598;SDS011;5855;48.840;9.188;2024-02-28T14:53:29;16.42;;;12.98;;
11598;SDS011;5855;48.840;9.188;2024-02-28T14:55:58;15.05;;;12.27;;
11598;SDS011;5855;48.840;9.188;2024-02-28T14:58:33;15.40;;;12.68;;
11598;SDS011;5855;48.840;9.188;2024-02-28T15:01:04;14.68;;;12.48;;